Gladstone, Virginia
Current Conditions -  °F | °C
As of 7:54 AM on Wednesday 26 Nov 2014 (Local Time) from KLYH Reporting Station
Moderate Rain Moderate Rain  
Wind Chill: 33°   Ceiling: 2700
Heat Index: 40°   Visibility: 5mi
Dew Point: 38°   Wind: 13mph
Humidity: 93%   Direction: 50°NE
Pressure: 30.01"   Gusts: 23mph
Location:  37.55°N, 78.85°W
Report Text: KLYH 261254Z 05011G20KT 5SM RA BR SCT012 SCT017 OVC027 04/03 A3001 RMK AO2 SLP166 P0015 T00440033
Loading
Personal Weather Stations






























Interactive Weather Map New forecast layout! Learn more

10-Day Weather Forecast

Advertisements
Track Severe Weather on mobile